Time;durP1;ratioP1;P1;durP2;ratioP2;P2;SDS_P1;SDS_P2;PMS_P1;PMS_P2;Temp;Humidity;BMP_temperature;BMP_pressure;BME280_temperature;BME280_humidity;BME280_pressure;Samples;Min_cycle;Max_cycle;Signal;HPM_P1;HPM_P2
2021/10/28 00:14:12;;;;;;;16.10;9.95;;;;;;;13.39;100.00;101843.00;5068780;28;20068;-38
2021/10/28 00:16:42;;;;;;;19.50;10.05;;;;;;;13.40;100.00;101843.81;5073452;28;20033;-35
2021/10/28 00:19:09;;;;;;;20.30;10.65;;;;;;;13.36;100.00;101832.38;5073771;28;20052;-33
2021/10/28 00:21:39;;;;;;;23.10;11.73;;;;;;;13.34;100.00;101840.25;5073775;28;20048;-37
2021/10/28 00:24:11;;;;;;;17.33;10.10;;;;;;;13.32;100.00;101841.69;5073400;28;20063;-35
2021/10/28 00:26:40;;;;;;;17.13;10.43;;;;;;;13.28;100.00;101834.97;5074036;28;20097;-40
2021/10/28 00:29:10;;;;;;;23.33;12.13;;;;;;;13.23;100.00;101838.66;5073653;28;20052;-36
2021/10/28 00:31:39;;;;;;;20.73;11.07;;;;;;;13.20;100.00;101838.41;5073313;28;20520;-34
2021/10/28 00:34:09;;;;;;;24.90;13.57;;;;;;;13.15;100.00;101824.41;5072544;28;20508;-35
2021/10/28 00:36:38;;;;;;;20.52;13.10;;;;;;;13.11;100.00;101826.97;5074037;28;20048;-36
2021/10/28 00:39:08;;;;;;;23.55;13.38;;;;;;;13.09;100.00;101826.41;5072796;28;20045;-32
2021/10/28 00:41:38;;;;;;;22.98;13.40;;;;;;;13.06;100.00;101822.22;5072675;28;20139;-36
2021/10/28 00:44:07;;;;;;;25.20;13.95;;;;;;;13.03;100.00;101821.97;5073319;28;20037;-34
2021/10/28 00:46:37;;;;;;;26.25;12.95;;;;;;;12.98;100.00;101819.22;5062514;28;20052;-37
2021/10/28 00:49:08;;;;;;;23.95;14.23;;;;;;;12.96;100.00;101813.91;5072621;28;20062;-33
2021/10/28 00:51:36;;;;;;;24.35;15.25;;;;;;;12.92;100.00;101826.00;5072953;28;20485;-31
2021/10/28 00:54:05;;;;;;;19.92;13.15;;;;;;;12.89;100.00;101816.22;5073159;28;20048;-33
2021/10/28 00:56:35;;;;;;;23.48;13.68;;;;;;;12.89;100.00;101818.16;5073542;28;20075;-33
2021/10/28 00:59:04;;;;;;;20.80;13.25;;;;;;;12.86;100.00;101816.78;5072508;28;20051;-37
2021/10/28 01:01:32;;;;;;;26.85;14.95;;;;;;;12.83;100.00;101811.75;5073388;28;20052;-35
2021/10/28 01:04:00;;;;;;;24.75;14.02;;;;;;;12.81;100.00;101818.78;5073038;28;20554;-35
2021/10/28 01:06:28;;;;;;;22.95;13.20;;;;;;;12.79;100.00;101810.66;5072433;28;20139;-36
2021/10/28 01:08:57;;;;;;;23.33;13.55;;;;;;;12.78;100.00;101814.63;5073062;28;20068;-37
2021/10/28 01:11:27;;;;;;;22.40;13.88;;;;;;;12.79;100.00;101812.66;5072921;28;20127;-35
2021/10/28 01:13:57;;;;;;;23.35;13.52;;;;;;;12.74;100.00;101816.31;5072595;28;20048;-37
2021/10/28 01:16:25;;;;;;;21.45;14.30;;;;;;;12.66;100.00;101817.75;5073177;28;20036;-32
2021/10/28 01:18:54;;;;;;;26.63;15.32;;;;;;;12.56;100.00;101820.63;5072957;28;20044;-40
2021/10/28 01:21:23;;;;;;;23.30;13.80;;;;;;;12.50;100.00;101809.75;5072233;28;20108;-35
2021/10/28 01:23:50;;;;;;;21.52;13.18;;;;;;;12.43;100.00;101812.84;5072399;28;20079;-36
2021/10/28 01:26:19;;;;;;;17.98;12.60;;;;;;;12.33;100.00;101810.97;5073127;28;20067;-35
2021/10/28 01:28:53;;;;;;;16.90;11.77;;;;;;;12.28;100.00;101808.19;5072420;28;20041;-31
2021/10/28 01:31:23;;;;;;;21.70;13.30;;;;;;;12.20;100.00;101808.78;5072691;28;20044;-36
2021/10/28 01:33:52;;;;;;;22.98;15.15;;;;;;;12.13;100.00;101807.44;5072038;28;20052;-34
2021/10/28 01:36:20;;;;;;;21.23;12.93;;;;;;;12.05;100.00;101804.09;5069036;28;20386;-36
2021/10/28 01:38:50;;;;;;;17.83;12.52;;;;;;;11.98;100.00;101797.16;5072792;28;20087;-30
2021/10/28 01:41:18;;;;;;;22.77;13.35;;;;;;;11.90;100.00;101801.34;5070788;28;20044;-37
2021/10/28 01:43:46;;;;;;;18.52;13.15;;;;;;;11.81;100.00;101799.41;5072533;28;20375;-29
2021/10/28 01:46:15;;;;;;;17.55;12.70;;;;;;;11.68;100.00;101795.25;5072130;28;20090;-34
2021/10/28 01:48:43;;;;;;;19.92;13.35;;;;;;;11.55;100.00;101801.44;5071846;28;20060;-35
2021/10/28 01:51:12;;;;;;;22.10;14.50;;;;;;;11.43;100.00;101795.28;5071700;28;20131;-34
2021/10/28 01:53:41;;;;;;;18.30;12.68;;;;;;;11.30;100.00;101802.31;5072205;28;20037;-36
2021/10/28 01:56:11;;;;;;;16.00;10.93;;;;;;;11.26;100.00;101796.44;5071359;28;20060;-34
2021/10/28 01:58:39;;;;;;;19.50;12.57;;;;;;;11.18;100.00;101799.81;5072397;28;20418;-39
2021/10/28 02:01:08;;;;;;;17.88;12.55;;;;;;;11.13;100.00;101797.00;5070803;28;20048;-38
2021/10/28 02:03:36;;;;;;;21.40;13.70;;;;;;;11.02;100.00;101792.53;5071426;28;20504;-37
2021/10/28 02:06:04;;;;;;;17.83;12.75;;;;;;;10.97;100.00;101793.41;5071986;28;20509;-40
2021/10/28 02:08:32;;;;;;;19.92;14.00;;;;;;;10.90;100.00;101783.59;5071549;28;20555;-32
2021/10/28 02:10:59;;;;;;;20.30;12.93;;;;;;;10.88;100.00;101780.25;5071554;28;20052;-37
2021/10/28 02:13:29;;;;;;;18.17;12.15;;;;;;;10.85;100.00;101781.66;5071469;28;20059;-32
2021/10/28 02:15:57;;;;;;;20.00;13.10;;;;;;;10.81;100.00;101786.09;5071060;28;20045;-30
2021/10/28 02:18:25;;;;;;;20.58;11.90;;;;;;;10.80;100.00;101789.16;5071618;28;20511;-33
2021/10/28 02:20:53;;;;;;;20.63;14.27;;;;;;;10.75;100.00;101784.44;5071919;28;20052;-36
2021/10/28 02:23:21;;;;;;;20.23;14.52;;;;;;;10.72;100.00;101775.78;5071137;28;20422;-36
2021/10/28 02:25:48;;;;;;;19.90;14.30;;;;;;;10.64;100.00;101786.38;5071444;28;20044;-34
2021/10/28 02:28:16;;;;;;;21.33;14.20;;;;;;;10.58;100.00;101786.66;5071395;28;20425;-36
2021/10/28 02:30:46;;;;;;;21.08;13.82;;;;;;;10.57;100.00;101785.81;5070703;28;20049;-35
2021/10/28 02:33:13;;;;;;;20.52;13.85;;;;;;;10.55;100.00;101776.03;5071425;28;20052;-35
2021/10/28 02:35:41;;;;;;;21.63;13.05;;;;;;;10.56;100.00;101777.72;5071453;28;20064;-33
2021/10/28 02:38:09;;;;;;;16.67;10.88;;;;;;;10.55;100.00;101776.88;5070590;28;20032;-37
2021/10/28 02:40:37;;;;;;;16.15;11.65;;;;;;;10.55;100.00;101771.31;5071562;28;20040;-38
2021/10/28 02:43:05;;;;;;;20.00;13.27;;;;;;;10.54;100.00;101768.78;5070843;28;20050;-33
2021/10/28 02:45:34;;;;;;;18.23;12.85;;;;;;;10.53;100.00;101756.78;5071132;28;20048;-33
2021/10/28 02:48:03;;;;;;;17.98;12.45;;;;;;;10.51;100.00;101759.00;5070912;28;20632;-35
2021/10/28 02:50:31;;;;;;;17.75;12.38;;;;;;;10.47;100.00;101762.63;5071222;28;20124;-33
2021/10/28 02:52:58;;;;;;;21.67;13.68;;;;;;;10.40;100.00;101753.66;5070364;28;20417;-30
2021/10/28 02:55:27;;;;;;;22.52;14.75;;;;;;;10.38;100.00;101753.13;5071220;28;20930;-35
2021/10/28 02:57:55;;;;;;;19.00;13.93;;;;;;;10.32;100.00;101750.34;5071217;28;20056;-37
2021/10/28 03:00:23;;;;;;;19.73;12.93;;;;;;;10.31;100.00;101745.88;5070615;28;20048;-36
2021/10/28 03:02:50;;;;;;;20.75;12.32;;;;;;;10.30;100.00;101732.19;5071016;28;20036;-38
2021/10/28 03:05:20;;;;;;;18.58;12.18;;;;;;;10.28;100.00;101740.00;5070378;28;20101;-35
2021/10/28 03:07:47;;;;;;;19.05;12.85;;;;;;;10.24;100.00;101728.53;5070841;28;20063;-36
2021/10/28 03:10:16;;;;;;;17.92;13.32;;;;;;;10.22;100.00;101732.72;5070614;28;20079;-35
2021/10/28 03:12:44;;;;;;;16.60;11.90;;;;;;;10.18;100.00;101724.06;5056892;28;20045;-33
2021/10/28 03:15:13;;;;;;;17.13;13.00;;;;;;;10.17;100.00;101727.13;5070848;28;20048;-33
2021/10/28 03:17:56;;;;;;;20.50;13.45;;;;;;;10.15;100.00;101723.75;5070919;28;20055;-36
2021/10/28 03:25:56;;;;;;;18.75;13.32;;;;;;;10.06;100.00;101717.03;5070992;28;20040;-34
2021/10/28 03:28:23;;;;;;;18.40;13.15;;;;;;;10.07;100.00;101713.13;5070268;28;20063;-34
2021/10/28 03:30:51;;;;;;;19.65;12.98;;;;;;;10.07;100.00;101708.41;5070474;28;20498;-34
2021/10/28 03:33:21;;;;;;;21.35;13.40;;;;;;;10.08;100.00;101706.44;5070231;28;20040;-33
2021/10/28 03:35:52;;;;;;;17.98;12.90;;;;;;;10.09;100.00;101711.75;5070397;28;20044;-33
2021/10/28 03:38:23;;;;;;;18.95;13.68;;;;;;;10.09;100.00;101710.91;5070904;28;20054;-34
2021/10/28 03:55:18;;;;;;;19.45;13.25;;;;;;;10.03;100.00;101707.25;5069904;28;20041;-37
2021/10/28 04:00:53;;;;;;;18.08;13.55;;;;;;;10.03;100.00;101704.47;5070328;28;20040;-37
2021/10/28 04:16:22;;;;;;;21.87;13.73;;;;;;;10.05;100.00;101698.63;5061339;28;20052;-35
2021/10/28 04:17:40;;;;;;;18.48;13.57;;;;;;;10.02;100.00;101697.22;5064677;28;20040;-33
2021/10/28 04:31:17;;;;;;;20.52;13.32;;;;;;;9.98;100.00;101683.00;5073027;28;20048;-38
2021/10/28 04:33:45;;;;;;;21.77;13.73;;;;;;;9.97;100.00;101681.34;5074027;28;20135;-33
2021/10/28 04:36:13;;;;;;;23.35;14.30;;;;;;;9.98;100.00;101679.38;5073521;28;20037;-33
2021/10/28 04:38:40;;;;;;;21.83;13.90;;;;;;;9.98;100.00;101683.00;5072112;28;20045;-34
2021/10/28 04:41:10;;;;;;;21.77;13.27;;;;;;;9.97;100.00;101686.91;5073388;28;20144;-36
2021/10/28 04:43:37;;;;;;;25.98;14.43;;;;;;;9.99;100.00;101686.63;5072876;28;20044;-33
2021/10/28 04:46:05;;;;;;;22.83;14.35;;;;;;;9.99;100.00;101697.78;5073371;28;20517;-35
2021/10/28 04:48:33;;;;;;;23.27;14.65;;;;;;;9.98;100.00;101694.16;5073363;28;20067;-32
2021/10/28 04:51:01;;;;;;;17.98;11.32;;;;;;;9.97;100.00;101697.22;5072852;28;20051;-35
2021/10/28 04:53:29;;;;;;;19.70;12.88;;;;;;;9.96;100.00;101692.75;5071207;28;20052;-31
2021/10/28 04:55:57;;;;;;;21.05;14.63;;;;;;;9.95;100.00;101700.28;5072186;28;20147;-36
2021/10/28 04:58:26;;;;;;;24.38;14.98;;;;;;;9.94;100.00;101700.56;5072495;28;20055;-37
2021/10/28 05:00:54;;;;;;;19.92;13.23;;;;;;;9.92;100.00;101692.47;5073355;28;20056;-34
2021/10/28 05:03:21;;;;;;;20.00;14.10;;;;;;;9.90;100.00;101697.47;5073037;28;20044;-35
2021/10/28 05:05:49;;;;;;;20.55;13.57;;;;;;;9.89;100.00;101690.22;5072479;28;20394;-35
2021/10/28 05:08:17;;;;;;;23.20;14.63;;;;;;;9.87;100.00;101686.88;5072676;28;20044;-35
2021/10/28 05:10:45;;;;;;;17.73;12.18;;;;;;;9.87;100.00;101694.41;5072815;28;20140;-33
2021/10/28 05:13:15;;;;;;;23.42;14.18;;;;;;;9.85;100.00;101699.41;5072612;28;20060;-30
2021/10/28 05:15:46;;;;;;;19.88;13.90;;;;;;;9.83;100.00;101694.09;5073065;28;20041;-35
2021/10/28 05:18:15;;;;;;;27.40;14.70;;;;;;;9.79;100.00;101697.72;5072870;28;20036;-34
2021/10/28 05:20:44;;;;;;;22.80;14.93;;;;;;;9.78;100.00;101694.09;5071652;28;20049;-41
2021/10/28 05:23:12;;;;;;;20.17;14.00;;;;;;;9.77;100.00;101697.16;5072226;28;20068;-35
2021/10/28 05:25:40;;;;;;;21.20;14.18;;;;;;;9.76;100.00;101695.50;5072652;28;20405;-38
2021/10/28 05:28:08;;;;;;;23.48;14.65;;;;;;;9.75;100.00;101694.66;5072090;28;20414;-33
2021/10/28 05:30:36;;;;;;;19.60;13.40;;;;;;;9.76;100.00;101693.53;5072332;28;20128;-31
2021/10/28 05:33:05;;;;;;;22.70;13.82;;;;;;;9.74;100.00;101692.97;5070125;28;20041;-36
2021/10/28 05:35:33;;;;;;;20.90;14.02;;;;;;;9.75;100.00;101694.66;5069226;28;20474;-34
2021/10/28 05:38:01;;;;;;;23.05;14.15;;;;;;;9.72;100.00;101686.84;5072106;28;20055;-38
2021/10/28 05:40:29;;;;;;;23.90;15.30;;;;;;;9.70;100.00;101679.84;5071249;28;20052;-35
2021/10/28 05:42:57;;;;;;;21.98;14.27;;;;;;;9.68;100.00;101677.34;5072251;28;20083;-38
2021/10/28 05:45:25;;;;;;;24.23;14.70;;;;;;;9.67;100.00;101678.44;5072201;28;20053;-37
2021/10/28 05:47:52;;;;;;;22.90;13.43;;;;;;;9.66;100.00;101666.47;5058186;28;20051;-36
2021/10/28 05:50:23;;;;;;;23.98;14.00;;;;;;;9.65;100.00;101675.94;5072274;28;20048;-36
2021/10/28 05:52:53;;;;;;;23.33;14.38;;;;;;;9.64;100.00;101673.41;5072000;28;20505;-33
2021/10/28 05:55:23;;;;;;;20.17;12.50;;;;;;;9.63;100.00;101660.59;5071584;28;20048;-36
2021/10/28 05:57:52;;;;;;;21.45;14.63;;;;;;;9.64;100.00;101662.25;5071975;28;20073;-39
2021/10/28 06:00:21;;;;;;;21.13;13.95;;;;;;;9.62;100.00;101656.97;5071958;28;20040;-35
2021/10/28 06:02:49;;;;;;;21.35;12.75;;;;;;;9.62;100.00;101661.69;5071386;28;20044;-36
2021/10/28 06:05:17;;;;;;;22.10;12.77;;;;;;;9.60;100.00;101659.19;5071808;28;20098;-42
2021/10/28 06:07:46;;;;;;;20.40;12.32;;;;;;;9.62;100.00;101656.97;5072271;28;20056;-38
2021/10/28 06:10:17;;;;;;;20.48;13.15;;;;;;;9.59;100.00;101657.50;5070884;28;20052;-35
2021/10/28 06:12:47;;;;;;;19.02;12.65;;;;;;;9.60;100.00;101666.69;5072138;28;20052;-37
2021/10/28 06:15:15;;;;;;;20.45;11.68;;;;;;;9.58;100.00;101661.44;5070856;28;20067;-37
2021/10/28 06:17:51;;;;;;;17.83;11.40;;;;;;;9.57;100.00;101656.97;5071344;28;20059;-31
2021/10/28 06:20:21;;;;;;;18.27;11.73;;;;;;;9.58;100.00;101655.03;5071236;28;20047;-38
2021/10/28 06:22:51;;;;;;;16.65;10.80;;;;;;;9.57;100.00;101656.13;5070636;28;20139;-38
2021/10/28 06:25:20;;;;;;;20.20;13.13;;;;;;;9.55;100.00;101669.50;5071121;28;20067;-33
2021/10/28 06:27:49;;;;;;;18.88;11.80;;;;;;;9.55;100.00;101652.78;5070889;28;20103;-33
2021/10/28 06:30:16;;;;;;;19.13;12.35;;;;;;;9.55;100.00;101663.91;5069544;28;20413;-35
2021/10/28 06:32:48;;;;;;;19.00;11.98;;;;;;;9.57;100.00;101661.69;5070620;28;20143;-32
2021/10/28 06:35:15;;;;;;;21.13;11.82;;;;;;;9.56;100.00;101660.03;5071035;28;20045;-33
2021/10/28 06:37:47;;;;;;;19.77;12.07;;;;;;;9.57;100.00;101664.50;5070933;28;20094;-32
2021/10/28 06:40:18;;;;;;;16.60;10.90;;;;;;;9.56;100.00;101660.88;5071297;28;20515;-37
2021/10/28 06:42:46;;;;;;;14.32;10.50;;;;;;;9.56;100.00;101652.50;5070967;28;20286;-36
2021/10/28 06:45:15;;;;;;;18.60;11.50;;;;;;;9.54;100.00;101656.66;5070858;28;20054;-36
2021/10/28 06:47:44;;;;;;;18.10;11.38;;;;;;;9.53;100.00;101646.63;5070778;28;20047;-36
2021/10/28 06:50:13;;;;;;;17.90;12.05;;;;;;;9.51;100.00;101643.28;5070560;28;20046;-34
2021/10/28 06:52:50;;;;;;;19.08;11.70;;;;;;;9.51;100.00;101644.13;5070999;28;20048;-38
2021/10/28 06:55:31;;;;;;;21.10;11.73;;;;;;;9.50;100.00;101648.00;5070955;28;20050;-33
2021/10/28 07:03:28;;;;;;;16.95;11.07;;;;;;;9.51;100.00;101660.00;5070787;28;20040;-33
2021/10/28 07:06:02;;;;;;;17.00;11.27;;;;;;;9.53;100.00;101649.41;5070321;28;20047;-31
2021/10/28 07:08:32;;;;;;;15.48;10.95;;;;;;;9.55;100.00;101656.41;5070675;28;20053;-35
2021/10/28 07:11:06;;;;;;;17.80;10.40;;;;;;;9.62;100.00;101653.34;5070893;28;20512;-32
2021/10/28 07:13:35;;;;;;;16.15;10.32;;;;;;;9.67;100.00;101643.06;5070376;28;20052;-37
2021/10/28 07:16:12;;;;;;;16.42;9.80;;;;;;;9.71;100.00;101646.13;5070523;28;20416;-38
2021/10/28 07:18:48;;;;;;;14.15;9.98;;;;;;;9.76;100.00;101645.31;5070565;28;20673;-39
2021/10/28 07:32:29;;;;;;;15.63;10.63;;;;;;;9.86;100.00;101635.00;5070685;28;20051;-37
2021/10/28 07:35:05;;;;;;;;;;;;;;;9.89;100.00;101637.25;5070019;28;20138;-38
2021/10/28 08:05:47;;;;;;;10.35;7.25;;;;;;;11.77;100.00;101602.59;5056451;28;20048;-42
2021/10/28 08:17:08;;;;;;;9.25;6.22;;;;;;;12.54;100.00;101584.91;5065568;28;20050;-40
2021/10/28 08:19:45;;;;;;;9.85;6.43;;;;;;;12.73;100.00;101583.03;5072862;28;20050;-40
2021/10/28 08:22:19;;;;;;;9.93;6.28;;;;;;;12.98;100.00;101583.91;5073559;28;20055;-39
2021/10/28 08:30:25;;;;;;;8.27;6.20;;;;;;;13.70;100.00;101579.88;5071709;28;20037;-40
2021/10/28 08:32:55;;;;;;;10.25;5.82;;;;;;;13.92;100.00;101576.47;5073695;28;20080;-40
2021/10/28 08:35:39;;;;;;;9.13;5.88;;;;;;;14.12;98.32;101570.53;5073662;28;20056;-38
2021/10/28 08:38:07;;;;;;;7.78;5.10;;;;;;;14.30;97.14;101574.44;5073629;28;20053;-41
2021/10/28 08:40:35;;;;;;;7.80;5.47;;;;;;;14.40;95.18;101582.69;5073524;28;20055;-34
2021/10/28 08:43:04;;;;;;;8.10;4.90;;;;;;;14.40;92.55;101576.22;5072744;28;20869;-36
2021/10/28 08:45:35;;;;;;;10.38;5.25;;;;;;;14.61;94.73;101573.91;5073202;28;20072;-41
2021/10/28 08:48:07;;;;;;;6.95;5.35;;;;;;;14.70;92.18;101555.22;5073995;28;20105;-39
2021/10/28 08:50:39;;;;;;;8.70;4.68;;;;;;;14.85;92.10;101568.13;5072866;28;20044;-38
2021/10/28 08:53:23;;;;;;;6.70;5.07;;;;;;;15.16;91.46;101557.97;5073403;28;20040;-43
2021/10/28 08:55:54;;;;;;;6.97;3.83;;;;;;;15.44;90.42;101553.94;5072319;28;20506;-36
2021/10/28 08:58:47;;;;;;;6.80;4.50;;;;;;;15.64;88.11;101555.50;5073123;28;20055;-40
2021/10/28 09:24:10;;;;;;;7.10;4.13;;;;;;;16.39;80.36;101546.31;5063278;28;20048;-41
2021/10/28 09:26:51;;;;;;;7.38;4.05;;;;;;;16.46;80.66;101546.72;5072107;28;20066;-37
2021/10/28 09:29:32;;;;;;;8.43;3.90;;;;;;;16.62;80.69;101535.84;5072860;28;20060;-40
2021/10/28 09:32:10;;;;;;;6.18;3.95;;;;;;;16.62;79.80;101540.66;5072121;28;20058;-42
2021/10/28 09:48:47;;;;;;;6.18;3.80;;;;;;;16.75;78.98;101528.50;5029390;28;20048;-34
2021/10/28 09:51:18;;;;;;;5.50;3.77;;;;;;;16.86;77.60;101521.41;5072382;28;20048;-42
2021/10/28 09:54:08;;;;;;;7.32;3.53;;;;;;;16.99;77.87;101508.34;5071870;28;20282;-40
2021/10/28 09:59:32;;;;;;;5.47;3.58;;;;;;;17.01;76.18;101506.88;5068313;28;20045;-39
2021/10/28 10:02:13;;;;;;;7.40;3.80;;;;;;;17.07;76.48;101508.38;5071479;28;20436;-35
2021/10/28 10:04:43;;;;;;;5.13;3.42;;;;;;;16.99;76.12;101502.69;5068759;28;20053;-41
2021/10/28 10:07:13;;;;;;;5.10;3.55;;;;;;;17.19;75.90;101510.56;5071348;28;20041;-38
2021/10/28 10:09:42;;;;;;;4.75;3.00;;;;;;;17.40;76.14;101505.97;5070436;28;20041;-36
2021/10/28 10:12:11;;;;;;;7.07;4.30;;;;;;;17.56;74.05;101506.34;5071589;28;20040;-41
2021/10/28 10:14:42;;;;;;;5.30;3.65;;;;;;;17.51;73.79;101507.31;5071126;28;20063;-36
2021/10/28 10:17:11;;;;;;;6.63;3.63;;;;;;;17.52;73.87;101502.50;5071621;28;20045;-40
2021/10/28 10:19:44;;;;;;;5.75;3.88;;;;;;;17.63;74.11;101503.00;5071799;28;20045;-35
2021/10/28 10:22:20;;;;;;;;;;;;;;;17.53;69.80;101499.34;5070629;28;20036;-38
2021/10/28 11:19:17;;;;;;;6.65;4.40;;;;;;;16.96;71.54;101438.53;5069847;28;20048;-43
2021/10/28 11:31:21;;;;;;;6.35;4.32;;;;;;;17.18;72.07;101429.97;5070604;28;20078;-33
2021/10/28 12:47:37;;;;;;;8.02;4.97;;;;;;;16.98;68.05;101289.63;5073132;28;20048;-30
2021/10/28 12:56:16;;;;;;;6.53;4.60;;;;;;;16.92;68.01;101276.84;5061657;28;20166;-35
2021/10/28 13:48:36;;;;;;;8.32;5.88;;;;;;;16.61;70.36;101218.59;5072536;28;20056;-36
2021/10/28 13:59:48;;;;;;;8.07;6.45;;;;;;;16.77;71.58;101194.44;5028458;28;20069;-38
2021/10/28 14:21:56;;;;;;;9.88;6.60;;;;;;;16.58;72.54;101179.00;5070376;28;20382;-36
2021/10/28 14:24:49;;;;;;;9.30;6.30;;;;;;;16.58;72.50;101174.19;5071465;28;20046;-35
2021/10/28 14:39:03;;;;;;;11.10;7.00;;;;;;;16.20;73.51;101185.25;5069372;28;20409;-37
2021/10/28 15:29:07;;;;;;;7.88;4.63;;;;;;;15.60;76.64;101171.03;5070776;28;20074;-38
2021/10/28 15:32:15;;;;;;;;;;;;;;;15.46;76.82;101159.88;5070746;28;20502;-44
2021/10/28 15:34:56;;;;;;;11.80;5.03;;;;;;;15.38;77.75;101155.06;5064779;28;19920;-36
2021/10/28 15:37:32;;;;;;;10.55;5.32;;;;;;;15.32;77.59;101154.38;5070685;28;20040;-34
2021/10/28 15:40:08;;;;;;;8.90;4.80;;;;;;;15.29;77.82;101148.56;5068584;28;20478;-33
2021/10/28 15:43:03;;;;;;;9.07;5.18;;;;;;;15.22;78.21;101143.38;5070734;28;20044;-41
2021/10/28 15:54:13;;;;;;;13.77;5.50;;;;;;;14.91;79.46;101142.56;5069472;28;20126;-35
2021/10/28 16:24:10;;;;;;;7.75;5.53;;;;;;;14.05;84.35;101114.63;5073216;28;20047;-39
2021/10/28 16:26:37;;;;;;;8.65;5.40;;;;;;;14.03;84.51;101114.13;5073289;28;20036;-41
2021/10/28 16:29:07;;;;;;;8.52;5.63;;;;;;;13.94;85.27;101119.66;5072580;28;20130;-36
2021/10/28 16:31:37;;;;;;;7.97;5.82;;;;;;;13.89;85.37;101116.13;5066749;28;20053;-35
2021/10/28 16:34:05;;;;;;;9.43;5.90;;;;;;;13.83;85.79;101118.22;5072211;28;20044;-41
2021/10/28 16:36:33;;;;;;;7.65;5.70;;;;;;;13.79;86.07;101114.38;5072433;28;20131;-34
2021/10/28 16:39:06;;;;;;;7.57;5.38;;;;;;;13.72;86.57;101112.03;5072912;28;20084;-37
2021/10/28 16:41:34;;;;;;;9.30;6.38;;;;;;;13.66;87.00;101112.44;5072509;28;20036;-38
2021/10/28 16:44:03;;;;;;;9.52;6.55;;;;;;;13.60;87.45;101108.91;5072924;28;20084;-40
2021/10/28 16:46:31;;;;;;;10.32;6.28;;;;;;;13.55;87.93;101111.00;5072519;28;20490;-31
2021/10/28 16:49:00;;;;;;;10.30;5.85;;;;;;;13.49;88.24;101099.06;5072180;28;20143;-38
2021/10/28 16:51:28;;;;;;;9.80;6.70;;;;;;;13.44;88.61;101101.97;5072378;28;20494;-33
2021/10/28 16:53:56;;;;;;;8.75;6.18;;;;;;;13.40;88.42;101093.34;5072949;28;20409;-35
2021/10/28 16:56:24;;;;;;;12.65;6.72;;;;;;;13.34;89.30;101094.63;5071834;28;20521;-35
2021/10/28 16:58:51;;;;;;;10.63;7.07;;;;;;;13.29;89.89;101091.91;5072514;28;20087;-37
2021/10/28 17:01:19;;;;;;;10.60;6.80;;;;;;;13.26;90.09;101089.72;5072307;28;20403;-35
2021/10/28 17:03:47;;;;;;;11.35;7.45;;;;;;;13.22;90.51;101091.47;5072047;28;20048;-31
2021/10/28 17:06:17;;;;;;;10.05;7.15;;;;;;;13.21;90.17;101101.03;5072288;28;20048;-40
2021/10/28 17:08:44;;;;;;;11.90;7.25;;;;;;;13.18;90.58;101087.66;5072320;28;20053;-36
2021/10/28 17:11:13;;;;;;;9.90;6.43;;;;;;;13.18;90.36;101086.84;5071779;28;20049;-32
2021/10/28 17:13:42;;;;;;;8.40;6.28;;;;;;;13.14;90.65;101089.41;5072139;28;20141;-42
2021/10/28 17:16:10;;;;;;;10.32;6.45;;;;;;;13.10;90.87;101077.97;5071673;28;20044;-38
2021/10/28 17:18:38;;;;;;;8.88;6.32;;;;;;;13.07;91.47;101086.16;5072215;28;20063;-38
2021/10/28 17:21:06;;;;;;;11.50;6.97;;;;;;;13.05;91.25;101080.88;5071978;28;20040;-33
2021/10/28 17:23:39;;;;;;;9.00;6.57;;;;;;;13.04;91.55;101086.78;5071798;28;20050;-40
2021/10/28 17:26:07;;;;;;;10.95;6.20;;;;;;;12.98;91.79;101079.63;5072040;28;20489;-33
2021/10/28 17:28:36;;;;;;;9.00;6.68;;;;;;;12.96;91.99;101079.94;5071895;28;20413;-38
2021/10/28 17:31:06;;;;;;;11.73;6.80;;;;;;;12.92;92.02;101076.09;5071190;28;20041;-33
2021/10/28 17:33:34;;;;;;;8.57;6.18;;;;;;;12.89;92.48;101062.72;5071994;28;20040;-34
2021/10/28 17:36:03;;;;;;;12.95;6.88;;;;;;;12.88;92.46;101063.84;5071891;28;20139;-42
2021/10/28 17:38:31;;;;;;;12.43;7.00;;;;;;;12.85;92.88;101069.22;5071176;28;20063;-38
2021/10/28 17:41:02;;;;;;;10.63;6.72;;;;;;;12.85;92.62;101069.22;5071413;28;20048;-34
2021/10/28 17:43:46;;;;;;;10.75;6.95;;;;;;;12.79;93.04;101071.28;5069816;28;20048;-37
2021/10/28 17:46:14;;;;;;;10.60;7.18;;;;;;;12.74;93.08;101069.44;5070863;28;20055;-32
2021/10/28 17:48:42;;;;;;;10.18;6.90;;;;;;;12.69;92.87;101063.09;5066986;28;20072;-34
2021/10/28 17:51:09;;;;;;;11.18;7.18;;;;;;;12.61;93.06;101067.41;5071578;28;20048;-36
2021/10/28 17:53:38;;;;;;;12.45;7.93;;;;;;;12.53;93.51;101061.72;5067290;28;20075;-38
2021/10/28 17:56:07;;;;;;;9.90;7.10;;;;;;;12.46;93.92;101061.28;5072130;28;20044;-31
2021/10/28 17:58:35;;;;;;;10.32;6.95;;;;;;;12.41;94.43;101062.19;5070708;28;20446;-37
2021/10/28 18:01:03;;;;;;;10.98;7.32;;;;;;;12.38;94.37;101060.03;5071135;28;20045;-34
2021/10/28 18:03:32;;;;;;;9.55;6.25;;;;;;;12.35;93.92;101063.44;5070989;28;20125;-31
2021/10/28 18:06:00;;;;;;;8.60;6.40;;;;;;;12.32;94.06;101067.66;5070817;28;20056;-39
2021/10/28 18:08:28;;;;;;;8.93;6.45;;;;;;;12.28;94.22;101068.59;5070435;28;20449;-34
2021/10/28 18:10:56;;;;;;;9.82;6.30;;;;;;;12.20;94.68;101070.09;5071443;28;20044;-36
2021/10/28 18:13:25;;;;;;;12.10;7.03;;;;;;;12.15;95.16;101069.38;5070598;28;20045;-35
2021/10/28 18:15:53;;;;;;;11.40;7.32;;;;;;;12.07;95.96;101063.31;5069908;28;20052;-36
2021/10/28 18:18:21;;;;;;;10.60;6.65;;;;;;;12.06;95.75;101064.44;5070531;28;20123;-35
2021/10/28 18:20:59;;;;;;;10.40;7.03;;;;;;;11.98;96.43;101056.78;5070453;28;20041;-32
2021/10/28 18:23:31;;;;;;;11.93;7.28;;;;;;;11.95;96.19;101059.34;5069466;28;20059;-35
2021/10/28 18:25:59;;;;;;;10.80;7.03;;;;;;;11.89;96.97;101055.78;5070919;28;20493;-36
2021/10/28 18:28:29;;;;;;;7.90;6.32;;;;;;;11.84;97.58;101049.44;5070253;28;20052;-35
2021/10/28 18:30:57;;;;;;;13.75;7.03;;;;;;;11.81;97.50;101041.66;5070760;28;20036;-34
2021/10/28 18:33:25;;;;;;;13.48;7.10;;;;;;;11.75;97.97;101046.47;5070888;28;20051;-36
2021/10/28 18:35:53;;;;;;;11.52;7.03;;;;;;;11.70;98.43;101041.78;5068906;28;20059;-31
2021/10/28 18:38:22;;;;;;;10.05;6.57;;;;;;;11.66;99.40;101051.91;5070446;28;20044;-38
2021/10/28 18:40:55;;;;;;;11.45;7.10;;;;;;;11.67;99.24;101055.53;5070116;28;20048;-40
2021/10/28 18:43:23;;;;;;;11.43;7.47;;;;;;;11.64;99.44;101045.78;5069638;28;20051;-36
2021/10/28 18:45:52;;;;;;;9.57;6.72;;;;;;;11.64;99.02;101051.38;5070398;28;20052;-30
2021/10/28 18:48:22;;;;;;;15.73;8.18;;;;;;;11.60;99.48;101049.47;5070297;28;20052;-38
2021/10/28 18:50:50;;;;;;;13.88;7.28;;;;;;;11.56;99.62;101042.84;5070216;28;20043;-42
2021/10/28 18:53:18;;;;;;;9.30;6.47;;;;;;;11.54;99.27;101039.50;5070325;28;20080;-40
2021/10/28 18:55:46;;;;;;;7.63;6.07;;;;;;;11.53;99.57;101043.44;5068554;28;20056;-34
2021/10/28 18:58:14;;;;;;;7.93;5.57;;;;;;;11.52;99.22;101045.41;5070438;28;20045;-35
2021/10/28 19:00:42;;;;;;;10.75;6.53;;;;;;;11.52;99.28;101045.41;5069921;28;20055;-37
2021/10/28 19:03:11;;;;;;;9.40;6.47;;;;;;;11.49;100.00;101037.63;5069018;28;20127;-38
2021/10/28 19:05:39;;;;;;;9.10;6.10;;;;;;;11.47;100.00;101044.63;5070374;28;20094;-38
2021/10/28 19:08:07;;;;;;;9.85;6.05;;;;;;;11.49;100.00;101050.75;5070130;28;20381;-39
2021/10/28 19:10:35;;;;;;;7.97;5.70;;;;;;;11.50;100.00;101035.66;5069681;28;20417;-38
2021/10/28 19:13:03;;;;;;;10.13;6.03;;;;;;;11.49;100.00;101036.78;5070447;28;20044;-36
2021/10/28 19:15:30;;;;;;;8.48;5.70;;;;;;;11.49;100.00;101031.19;5070330;28;20044;-34
2021/10/28 19:17:58;;;;;;;8.85;6.35;;;;;;;11.49;100.00;101036.78;5068998;28;20044;-41
2021/10/28 19:20:28;;;;;;;7.82;6.03;;;;;;;11.49;100.00;101032.03;5070131;28;20059;-35